sensor_id;sensor_type;location;lat;lon;timestamp;temperature;humidity
28484;DHT22;15704;48.834;8.736;2022-12-04T00:01:09;0.90;99.90
28484;DHT22;15704;48.834;8.736;2022-12-04T00:03:37;1.00;99.90
28484;DHT22;15704;48.834;8.736;2022-12-04T00:06:07;1.00;99.90
28484;DHT22;15704;48.834;8.736;2022-12-04T00:08:34;1.00;99.90
28484;DHT22;15704;48.834;8.736;2022-12-04T00:11:03;1.00;99.90
28484;DHT22;15704;48.834;8.736;2022-12-04T00:13:31;1.00;99.90
28484;DHT22;15704;48.834;8.736;2022-12-04T00:15:58;1.00;99.90
28484;DHT22;15704;48.834;8.736;2022-12-04T00:18:26;1.00;99.90
28484;DHT22;15704;48.834;8.736;2022-12-04T00:20:53;1.10;99.90
28484;DHT22;15704;48.834;8.736;2022-12-04T00:23:20;1.00;99.90
28484;DHT22;15704;48.834;8.736;2022-12-04T00:25:46;1.00;99.90
28484;DHT22;15704;48.834;8.736;2022-12-04T00:28:17;1.00;99.90
28484;DHT22;15704;48.834;8.736;2022-12-04T00:30:45;0.90;99.90
28484;DHT22;15704;48.834;8.736;2022-12-04T00:33:12;0.90;99.90
28484;DHT22;15704;48.834;8.736;2022-12-04T00:35:39;1.10;99.90
28484;DHT22;15704;48.834;8.736;2022-12-04T00:38:06;1.00;99.90
28484;DHT22;15704;48.834;8.736;2022-12-04T00:40:33;1.10;99.90
28484;DHT22;15704;48.834;8.736;2022-12-04T00:43:00;1.00;99.90
28484;DHT22;15704;48.834;8.736;2022-12-04T00:45:26;1.10;99.90
28484;DHT22;15704;48.834;8.736;2022-12-04T00:47:53;1.10;99.90
28484;DHT22;15704;48.834;8.736;2022-12-04T00:50:22;1.20;99.90
28484;DHT22;15704;48.834;8.736;2022-12-04T00:52:48;1.20;99.90
28484;DHT22;15704;48.834;8.736;2022-12-04T00:55:15;1.20;99.90
28484;DHT22;15704;48.834;8.736;2022-12-04T00:57:42;1.20;99.90
28484;DHT22;15704;48.834;8.736;2022-12-04T01:00:09;1.20;99.90
28484;DHT22;15704;48.834;8.736;2022-12-04T01:02:35;1.20;99.90
28484;DHT22;15704;48.834;8.736;2022-12-04T01:05:02;1.20;99.90
28484;DHT22;15704;48.834;8.736;2022-12-04T01:07:29;1.10;99.90
28484;DHT22;15704;48.834;8.736;2022-12-04T01:09:56;1.20;99.90
28484;DHT22;15704;48.834;8.736;2022-12-04T01:12:23;1.20;99.90
28484;DHT22;15704;48.834;8.736;2022-12-04T01:14:49;1.20;99.90
28484;DHT22;15704;48.834;8.736;2022-12-04T01:17:16;1.10;99.90
28484;DHT22;15704;48.834;8.736;2022-12-04T01:19:43;1.10;99.90
28484;DHT22;15704;48.834;8.736;2022-12-04T01:22:10;1.10;99.90
28484;DHT22;15704;48.834;8.736;2022-12-04T01:24:36;1.10;99.90
28484;DHT22;15704;48.834;8.736;2022-12-04T01:27:03;1.10;99.90
28484;DHT22;15704;48.834;8.736;2022-12-04T01:29:30;1.00;99.90
28484;DHT22;15704;48.834;8.736;2022-12-04T01:31:56;1.00;99.90
28484;DHT22;15704;48.834;8.736;2022-12-04T01:34:23;1.00;99.90
28484;DHT22;15704;48.834;8.736;2022-12-04T01:36:51;1.00;99.90
28484;DHT22;15704;48.834;8.736;2022-12-04T01:39:18;1.10;99.90
28484;DHT22;15704;48.834;8.736;2022-12-04T01:41:44;1.10;99.90
28484;DHT22;15704;48.834;8.736;2022-12-04T01:44:23;1.10;99.90
28484;DHT22;15704;48.834;8.736;2022-12-04T01:46:54;1.10;99.90
28484;DHT22;15704;48.834;8.736;2022-12-04T01:52:20;1.10;99.90
28484;DHT22;15704;48.834;8.736;2022-12-04T01:54:58;1.20;99.90
28484;DHT22;15704;48.834;8.736;2022-12-04T01:57:28;1.30;99.90
28484;DHT22;15704;48.834;8.736;2022-12-04T02:00:04;1.30;99.90
28484;DHT22;15704;48.834;8.736;2022-12-04T02:02:35;1.20;99.90
28484;DHT22;15704;48.834;8.736;2022-12-04T02:05:04;1.30;99.90
28484;DHT22;15704;48.834;8.736;2022-12-04T02:07:31;1.30;99.90
28484;DHT22;15704;48.834;8.736;2022-12-04T02:09:58;1.20;99.90
28484;DHT22;15704;48.834;8.736;2022-12-04T02:12:42;1.30;99.90
28484;DHT22;15704;48.834;8.736;2022-12-04T02:15:17;1.30;99.90
28484;DHT22;15704;48.834;8.736;2022-12-04T02:17:58;1.40;99.90
28484;DHT22;15704;48.834;8.736;2022-12-04T02:20:41;1.40;99.90
28484;DHT22;15704;48.834;8.736;2022-12-04T02:23:54;1.30;99.90
28484;DHT22;15704;48.834;8.736;2022-12-04T02:26:40;1.40;99.90
28484;DHT22;15704;48.834;8.736;2022-12-04T02:29:27;1.10;99.90
28484;DHT22;15704;48.834;8.736;2022-12-04T02:32:18;1.10;99.90
28484;DHT22;15704;48.834;8.736;2022-12-04T02:37:44;1.10;99.90
28484;DHT22;15704;48.834;8.736;2022-12-04T02:40:23;1.10;99.90
28484;DHT22;15704;48.834;8.736;2022-12-04T02:43:00;1.10;99.90
28484;DHT22;15704;48.834;8.736;2022-12-04T02:45:37;1.10;99.90
28484;DHT22;15704;48.834;8.736;2022-12-04T02:48:06;1.10;99.90
28484;DHT22;15704;48.834;8.736;2022-12-04T02:50:37;1.10;99.90
28484;DHT22;15704;48.834;8.736;2022-12-04T02:53:18;1.20;99.90
28484;DHT22;15704;48.834;8.736;2022-12-04T02:56:10;1.20;99.90
28484;DHT22;15704;48.834;8.736;2022-12-04T02:58:54;1.30;99.90
28484;DHT22;15704;48.834;8.736;2022-12-04T03:01:28;1.30;99.90
28484;DHT22;15704;48.834;8.736;2022-12-04T03:03:58;1.40;99.90
28484;DHT22;15704;48.834;8.736;2022-12-04T03:06:28;1.30;99.90
28484;DHT22;15704;48.834;8.736;2022-12-04T03:09:19;1.40;99.90
28484;DHT22;15704;48.834;8.736;2022-12-04T03:11:55;1.50;99.90
28484;DHT22;15704;48.834;8.736;2022-12-04T03:14:29;1.50;99.90
28484;DHT22;15704;48.834;8.736;2022-12-04T03:17:03;1.40;99.90
28484;DHT22;15704;48.834;8.736;2022-12-04T03:19:44;1.40;99.90
28484;DHT22;15704;48.834;8.736;2022-12-04T03:22:15;1.50;99.90
28484;DHT22;15704;48.834;8.736;2022-12-04T03:24:47;1.50;99.90
28484;DHT22;15704;48.834;8.736;2022-12-04T03:30:18;1.50;99.90
28484;DHT22;15704;48.834;8.736;2022-12-04T03:33:11;1.40;99.90
28484;DHT22;15704;48.834;8.736;2022-12-04T03:36:06;1.30;99.90
28484;DHT22;15704;48.834;8.736;2022-12-04T03:39:37;1.20;99.90
28484;DHT22;15704;48.834;8.736;2022-12-04T03:41:44;1.20;99.90
28484;DHT22;15704;48.834;8.736;2022-12-04T03:49:32;1.20;99.90
28484;DHT22;15704;48.834;8.736;2022-12-04T03:54:46;1.30;99.90
28484;DHT22;15704;48.834;8.736;2022-12-04T03:57:18;1.30;99.90
28484;DHT22;15704;48.834;8.736;2022-12-04T03:59:51;1.30;99.90
28484;DHT22;15704;48.834;8.736;2022-12-04T04:02:23;1.40;99.90
28484;DHT22;15704;48.834;8.736;2022-12-04T04:04:54;1.30;99.90
28484;DHT22;15704;48.834;8.736;2022-12-04T04:07:48;1.40;99.90
28484;DHT22;15704;48.834;8.736;2022-12-04T04:10:16;1.40;99.90
28484;DHT22;15704;48.834;8.736;2022-12-04T04:12:53;1.40;99.90
28484;DHT22;15704;48.834;8.736;2022-12-04T04:15:50;1.40;99.90
28484;DHT22;15704;48.834;8.736;2022-12-04T04:18:37;1.40;99.90
28484;DHT22;15704;48.834;8.736;2022-12-04T04:21:27;1.50;99.90
28484;DHT22;15704;48.834;8.736;2022-12-04T04:24:31;1.60;99.90
28484;DHT22;15704;48.834;8.736;2022-12-04T04:27:00;1.50;99.90
28484;DHT22;15704;48.834;8.736;2022-12-04T04:29:27;1.60;99.90
28484;DHT22;15704;48.834;8.736;2022-12-04T04:32:22;1.60;99.90
28484;DHT22;15704;48.834;8.736;2022-12-04T04:35:14;1.50;99.90
28484;DHT22;15704;48.834;8.736;2022-12-04T04:38:04;1.50;99.90
28484;DHT22;15704;48.834;8.736;2022-12-04T04:41:35;1.50;99.90
28484;DHT22;15704;48.834;8.736;2022-12-04T04:43:41;1.40;99.90
28484;DHT22;15704;48.834;8.736;2022-12-04T04:46:31;1.40;99.90
28484;DHT22;15704;48.834;8.736;2022-12-04T04:49:02;1.50;99.90
28484;DHT22;15704;48.834;8.736;2022-12-04T04:51:30;1.40;99.90
28484;DHT22;15704;48.834;8.736;2022-12-04T04:54:02;1.60;99.90
28484;DHT22;15704;48.834;8.736;2022-12-04T04:56:30;1.60;99.90
28484;DHT22;15704;48.834;8.736;2022-12-04T04:58:56;1.60;99.90
28484;DHT22;15704;48.834;8.736;2022-12-04T05:01:26;1.60;99.90
28484;DHT22;15704;48.834;8.736;2022-12-04T05:03:53;1.60;99.90
28484;DHT22;15704;48.834;8.736;2022-12-04T05:06:20;1.50;99.90
28484;DHT22;15704;48.834;8.736;2022-12-04T05:08:47;1.50;99.90
28484;DHT22;15704;48.834;8.736;2022-12-04T05:11:15;1.40;99.90
28484;DHT22;15704;48.834;8.736;2022-12-04T05:13:42;1.30;99.90
28484;DHT22;15704;48.834;8.736;2022-12-04T05:16:11;1.40;99.90
28484;DHT22;15704;48.834;8.736;2022-12-04T05:18:39;1.40;99.90
28484;DHT22;15704;48.834;8.736;2022-12-04T05:21:07;1.30;99.90
28484;DHT22;15704;48.834;8.736;2022-12-04T05:23:34;1.40;99.90
28484;DHT22;15704;48.834;8.736;2022-12-04T05:26:02;1.40;99.90
28484;DHT22;15704;48.834;8.736;2022-12-04T05:28:29;1.40;99.90
28484;DHT22;15704;48.834;8.736;2022-12-04T05:30:58;1.40;99.90
28484;DHT22;15704;48.834;8.736;2022-12-04T05:33:25;1.50;99.90
28484;DHT22;15704;48.834;8.736;2022-12-04T05:35:57;1.60;99.90
28484;DHT22;15704;48.834;8.736;2022-12-04T05:38:24;1.60;99.90
28484;DHT22;15704;48.834;8.736;2022-12-04T05:40:50;1.60;99.90
28484;DHT22;15704;48.834;8.736;2022-12-04T05:43:17;1.50;99.90
28484;DHT22;15704;48.834;8.736;2022-12-04T05:45:44;1.60;99.90
28484;DHT22;15704;48.834;8.736;2022-12-04T05:48:11;1.60;99.90
28484;DHT22;15704;48.834;8.736;2022-12-04T05:50:38;1.50;99.90
28484;DHT22;15704;48.834;8.736;2022-12-04T05:53:04;1.60;99.90
28484;DHT22;15704;48.834;8.736;2022-12-04T05:55:31;1.60;99.90
28484;DHT22;15704;48.834;8.736;2022-12-04T05:57:58;1.60;99.90
28484;DHT22;15704;48.834;8.736;2022-12-04T06:00:25;1.60;99.90
28484;DHT22;15704;48.834;8.736;2022-12-04T06:02:51;1.60;99.90
28484;DHT22;15704;48.834;8.736;2022-12-04T06:05:18;1.60;99.90
28484;DHT22;15704;48.834;8.736;2022-12-04T06:07:45;1.50;99.90
28484;DHT22;15704;48.834;8.736;2022-12-04T06:10:12;1.60;99.90
28484;DHT22;15704;48.834;8.736;2022-12-04T06:12:39;1.70;99.90
28484;DHT22;15704;48.834;8.736;2022-12-04T06:15:06;1.70;99.90
28484;DHT22;15704;48.834;8.736;2022-12-04T06:17:32;1.70;99.90
28484;DHT22;15704;48.834;8.736;2022-12-04T06:19:59;1.70;99.90
28484;DHT22;15704;48.834;8.736;2022-12-04T06:22:26;1.80;99.90
28484;DHT22;15704;48.834;8.736;2022-12-04T06:24:53;1.80;99.90
28484;DHT22;15704;48.834;8.736;2022-12-04T06:27:20;1.80;99.90
28484;DHT22;15704;48.834;8.736;2022-12-04T06:29:54;1.70;99.90
28484;DHT22;15704;48.834;8.736;2022-12-04T06:32:21;1.80;99.90
28484;DHT22;15704;48.834;8.736;2022-12-04T06:34:52;1.70;99.90
28484;DHT22;15704;48.834;8.736;2022-12-04T06:37:21;1.70;99.90
28484;DHT22;15704;48.834;8.736;2022-12-04T06:39:48;1.60;99.90
28484;DHT22;15704;48.834;8.736;2022-12-04T06:42:15;1.50;99.90
28484;DHT22;15704;48.834;8.736;2022-12-04T06:44:42;1.40;99.90
28484;DHT22;15704;48.834;8.736;2022-12-04T06:47:08;1.40;99.90
28484;DHT22;15704;48.834;8.736;2022-12-04T06:49:35;1.50;99.90
28484;DHT22;15704;48.834;8.736;2022-12-04T06:52:02;1.30;99.90
28484;DHT22;15704;48.834;8.736;2022-12-04T06:54:29;1.40;99.90
28484;DHT22;15704;48.834;8.736;2022-12-04T06:56:56;1.40;99.90
28484;DHT22;15704;48.834;8.736;2022-12-04T06:59:22;1.30;99.90
28484;DHT22;15704;48.834;8.736;2022-12-04T07:01:49;1.40;99.90
28484;DHT22;15704;48.834;8.736;2022-12-04T07:04:16;1.40;99.90
28484;DHT22;15704;48.834;8.736;2022-12-04T07:06:42;1.20;99.90
28484;DHT22;15704;48.834;8.736;2022-12-04T07:09:12;1.20;99.90
28484;DHT22;15704;48.834;8.736;2022-12-04T07:11:41;1.20;99.90
28484;DHT22;15704;48.834;8.736;2022-12-04T07:14:08;1.20;99.90
28484;DHT22;15704;48.834;8.736;2022-12-04T07:16:34;1.30;99.90
28484;DHT22;15704;48.834;8.736;2022-12-04T07:19:08;1.30;99.90
28484;DHT22;15704;48.834;8.736;2022-12-04T07:21:34;1.40;99.90
28484;DHT22;15704;48.834;8.736;2022-12-04T07:24:01;1.50;99.90
28484;DHT22;15704;48.834;8.736;2022-12-04T07:26:28;1.50;99.90
28484;DHT22;15704;48.834;8.736;2022-12-04T07:28:56;1.60;99.90
28484;DHT22;15704;48.834;8.736;2022-12-04T07:31:24;1.70;99.90
28484;DHT22;15704;48.834;8.736;2022-12-04T07:33:52;1.70;99.90
28484;DHT22;15704;48.834;8.736;2022-12-04T07:36:21;1.60;99.90
28484;DHT22;15704;48.834;8.736;2022-12-04T07:38:48;1.60;99.90
28484;DHT22;15704;48.834;8.736;2022-12-04T07:41:15;1.60;99.90
28484;DHT22;15704;48.834;8.736;2022-12-04T07:43:42;1.70;99.90
28484;DHT22;15704;48.834;8.736;2022-12-04T07:46:14;1.80;99.90
28484;DHT22;15704;48.834;8.736;2022-12-04T07:48:41;1.80;99.90
28484;DHT22;15704;48.834;8.736;2022-12-04T07:51:17;1.80;99.90
28484;DHT22;15704;48.834;8.736;2022-12-04T07:53:44;1.80;99.90
28484;DHT22;15704;48.834;8.736;2022-12-04T07:56:12;1.90;99.90
28484;DHT22;15704;48.834;8.736;2022-12-04T07:58:40;1.90;99.90
28484;DHT22;15704;48.834;8.736;2022-12-04T08:03:36;1.90;99.90
28484;DHT22;15704;48.834;8.736;2022-12-04T08:06:09;1.90;99.90
28484;DHT22;15704;48.834;8.736;2022-12-04T08:08:36;1.90;99.90
28484;DHT22;15704;48.834;8.736;2022-12-04T08:11:10;1.80;99.90
28484;DHT22;15704;48.834;8.736;2022-12-04T08:13:37;1.70;99.90
28484;DHT22;15704;48.834;8.736;2022-12-04T08:16:06;1.60;99.90
28484;DHT22;15704;48.834;8.736;2022-12-04T08:18:33;1.60;99.90
28484;DHT22;15704;48.834;8.736;2022-12-04T08:21:08;1.40;99.90
28484;DHT22;15704;48.834;8.736;2022-12-04T08:23:38;1.40;99.90
28484;DHT22;15704;48.834;8.736;2022-12-04T08:26:06;1.50;99.90
28484;DHT22;15704;48.834;8.736;2022-12-04T08:28:33;1.40;99.90
28484;DHT22;15704;48.834;8.736;2022-12-04T08:31:03;1.40;99.90
28484;DHT22;15704;48.834;8.736;2022-12-04T08:33:31;1.40;99.90
28484;DHT22;15704;48.834;8.736;2022-12-04T08:35:58;1.60;99.90
28484;DHT22;15704;48.834;8.736;2022-12-04T08:38:25;1.60;99.90
28484;DHT22;15704;48.834;8.736;2022-12-04T08:40:52;1.60;99.90
28484;DHT22;15704;48.834;8.736;2022-12-04T08:43:18;1.60;99.90
28484;DHT22;15704;48.834;8.736;2022-12-04T08:45:54;1.60;99.90
28484;DHT22;15704;48.834;8.736;2022-12-04T08:48:21;1.70;99.90
28484;DHT22;15704;48.834;8.736;2022-12-04T08:50:48;1.80;99.90
28484;DHT22;15704;48.834;8.736;2022-12-04T08:53:15;1.90;99.90
28484;DHT22;15704;48.834;8.736;2022-12-04T08:55:42;1.90;99.90
28484;DHT22;15704;48.834;8.736;2022-12-04T08:58:08;2.00;99.90
28484;DHT22;15704;48.834;8.736;2022-12-04T09:00:35;2.00;99.90
28484;DHT22;15704;48.834;8.736;2022-12-04T09:03:02;2.00;99.90
28484;DHT22;15704;48.834;8.736;2022-12-04T09:05:29;2.10;99.90
28484;DHT22;15704;48.834;8.736;2022-12-04T09:07:56;2.10;99.90
28484;DHT22;15704;48.834;8.736;2022-12-04T09:10:23;2.10;99.90
28484;DHT22;15704;48.834;8.736;2022-12-04T09:12:49;2.10;99.90
28484;DHT22;15704;48.834;8.736;2022-12-04T09:15:16;2.10;99.90
28484;DHT22;15704;48.834;8.736;2022-12-04T09:17:43;2.20;99.90
28484;DHT22;15704;48.834;8.736;2022-12-04T09:20:10;2.20;99.90
28484;DHT22;15704;48.834;8.736;2022-12-04T09:22:37;2.20;99.90
28484;DHT22;15704;48.834;8.736;2022-12-04T09:25:24;2.10;99.90
28484;DHT22;15704;48.834;8.736;2022-12-04T09:27:51;2.20;99.90
28484;DHT22;15704;48.834;8.736;2022-12-04T09:30:17;2.30;99.90
28484;DHT22;15704;48.834;8.736;2022-12-04T09:32:44;2.30;99.90
28484;DHT22;15704;48.834;8.736;2022-12-04T09:35:11;2.30;99.90
28484;DHT22;15704;48.834;8.736;2022-12-04T09:37:38;2.30;99.90
28484;DHT22;15704;48.834;8.736;2022-12-04T09:40:06;2.30;99.90
28484;DHT22;15704;48.834;8.736;2022-12-04T09:42:43;2.20;99.90
28484;DHT22;15704;48.834;8.736;2022-12-04T09:45:16;2.20;99.90
28484;DHT22;15704;48.834;8.736;2022-12-04T09:47:51;2.30;99.90
28484;DHT22;15704;48.834;8.736;2022-12-04T09:50:40;2.30;99.90
28484;DHT22;15704;48.834;8.736;2022-12-04T09:53:14;2.40;99.90
28484;DHT22;15704;48.834;8.736;2022-12-04T09:58:19;2.40;99.90
28484;DHT22;15704;48.834;8.736;2022-12-04T10:00:49;2.40;99.90
28484;DHT22;15704;48.834;8.736;2022-12-04T10:03:19;2.40;99.90
28484;DHT22;15704;48.834;8.736;2022-12-04T10:08:34;2.50;99.90
28484;DHT22;15704;48.834;8.736;2022-12-04T10:14:02;2.40;99.90
28484;DHT22;15704;48.834;8.736;2022-12-04T10:19:16;2.50;99.90
28484;DHT22;15704;48.834;8.736;2022-12-04T10:24:55;2.30;99.90
28484;DHT22;15704;48.834;8.736;2022-12-04T10:27:33;2.30;99.90
28484;DHT22;15704;48.834;8.736;2022-12-04T10:30:06;2.40;99.90
28484;DHT22;15704;48.834;8.736;2022-12-04T10:32:43;2.40;99.90
28484;DHT22;15704;48.834;8.736;2022-12-04T10:35:21;2.30;99.90
28484;DHT22;15704;48.834;8.736;2022-12-04T10:37:54;2.00;99.90
28484;DHT22;15704;48.834;8.736;2022-12-04T10:40:36;2.00;99.90
28484;DHT22;15704;48.834;8.736;2022-12-04T10:45:55;1.90;99.90
28484;DHT22;15704;48.834;8.736;2022-12-04T10:48:30;2.00;99.90
28484;DHT22;15704;48.834;8.736;2022-12-04T10:50:58;2.10;99.90
28484;DHT22;15704;48.834;8.736;2022-12-04T10:53:34;2.10;99.90
28484;DHT22;15704;48.834;8.736;2022-12-04T10:56:13;2.30;99.90
28484;DHT22;15704;48.834;8.736;2022-12-04T10:58:40;2.40;99.90
28484;DHT22;15704;48.834;8.736;2022-12-04T11:01:10;2.30;99.90
28484;DHT22;15704;48.834;8.736;2022-12-04T11:03:38;2.30;99.90
28484;DHT22;15704;48.834;8.736;2022-12-04T11:06:08;2.40;99.90
28484;DHT22;15704;48.834;8.736;2022-12-04T11:08:41;2.30;99.90
28484;DHT22;15704;48.834;8.736;2022-12-04T11:11:11;2.10;99.90
28484;DHT22;15704;48.834;8.736;2022-12-04T11:13:39;2.10;99.90
28484;DHT22;15704;48.834;8.736;2022-12-04T11:16:06;2.10;99.90
28484;DHT22;15704;48.834;8.736;2022-12-04T11:18:48;2.20;99.90
28484;DHT22;15704;48.834;8.736;2022-12-04T11:21:25;2.30;99.90
28484;DHT22;15704;48.834;8.736;2022-12-04T11:23:53;2.20;99.90
28484;DHT22;15704;48.834;8.736;2022-12-04T11:26:35;2.30;99.90
28484;DHT22;15704;48.834;8.736;2022-12-04T11:29:04;2.20;99.90
28484;DHT22;15704;48.834;8.736;2022-12-04T11:31:31;2.30;99.90
28484;DHT22;15704;48.834;8.736;2022-12-04T11:34:01;2.20;99.90
28484;DHT22;15704;48.834;8.736;2022-12-04T11:36:36;2.30;99.90
28484;DHT22;15704;48.834;8.736;2022-12-04T11:39:16;2.30;99.90
28484;DHT22;15704;48.834;8.736;2022-12-04T11:41:43;2.30;99.90
28484;DHT22;15704;48.834;8.736;2022-12-04T11:44:28;2.20;99.90
28484;DHT22;15704;48.834;8.736;2022-12-04T11:46:58;2.30;99.90
28484;DHT22;15704;48.834;8.736;2022-12-04T11:49:29;2.30;99.90
28484;DHT22;15704;48.834;8.736;2022-12-04T11:55:16;2.00;99.90
28484;DHT22;15704;48.834;8.736;2022-12-04T12:00:56;2.20;99.90
28484;DHT22;15704;48.834;8.736;2022-12-04T12:09:14;2.20;99.90
28484;DHT22;15704;48.834;8.736;2022-12-04T12:12:06;2.10;99.90
28484;DHT22;15704;48.834;8.736;2022-12-04T12:14:51;2.00;99.90
28484;DHT22;15704;48.834;8.736;2022-12-04T12:18:30;2.00;99.90
28484;DHT22;15704;48.834;8.736;2022-12-04T12:23:07;2.00;99.90
28484;DHT22;15704;48.834;8.736;2022-12-04T12:28:11;2.00;99.90
28484;DHT22;15704;48.834;8.736;2022-12-04T12:33:48;2.00;99.90
28484;DHT22;15704;48.834;8.736;2022-12-04T12:36:17;2.00;99.90
28484;DHT22;15704;48.834;8.736;2022-12-04T12:38:52;2.00;99.90
28484;DHT22;15704;48.834;8.736;2022-12-04T12:44:00;2.00;99.90
28484;DHT22;15704;48.834;8.736;2022-12-04T12:46:36;2.10;99.90
28484;DHT22;15704;48.834;8.736;2022-12-04T12:49:19;2.10;99.90
28484;DHT22;15704;48.834;8.736;2022-12-04T12:51:58;1.90;99.90
28484;DHT22;15704;48.834;8.736;2022-12-04T12:54:45;2.00;99.90
28484;DHT22;15704;48.834;8.736;2022-12-04T12:57:19;2.00;99.90
28484;DHT22;15704;48.834;8.736;2022-12-04T12:59:51;2.10;99.90
28484;DHT22;15704;48.834;8.736;2022-12-04T13:02:27;2.00;99.90
28484;DHT22;15704;48.834;8.736;2022-12-04T13:04:59;2.00;99.90
28484;DHT22;15704;48.834;8.736;2022-12-04T13:10:47;1.80;99.90
28484;DHT22;15704;48.834;8.736;2022-12-04T13:15:45;1.70;99.90
28484;DHT22;15704;48.834;8.736;2022-12-04T13:18:26;1.50;99.90
28484;DHT22;15704;48.834;8.736;2022-12-04T13:20:58;1.70;99.90
28484;DHT22;15704;48.834;8.736;2022-12-04T13:23:48;1.70;99.90
28484;DHT22;15704;48.834;8.736;2022-12-04T13:32:28;1.70;99.90
28484;DHT22;15704;48.834;8.736;2022-12-04T13:38:10;1.90;99.90
28484;DHT22;15704;48.834;8.736;2022-12-04T13:41:00;1.80;99.90
28484;DHT22;15704;48.834;8.736;2022-12-04T13:46:00;1.90;99.90
28484;DHT22;15704;48.834;8.736;2022-12-04T13:48:38;1.60;99.90
28484;DHT22;15704;48.834;8.736;2022-12-04T13:51:51;1.60;99.90
28484;DHT22;15704;48.834;8.736;2022-12-04T13:56:50;1.90;99.90
28484;DHT22;15704;48.834;8.736;2022-12-04T14:01:49;2.00;99.90
28484;DHT22;15704;48.834;8.736;2022-12-04T14:06:54;2.10;99.90
28484;DHT22;15704;48.834;8.736;2022-12-04T14:09:26;2.10;99.90
28484;DHT22;15704;48.834;8.736;2022-12-04T14:11:58;2.10;99.90
28484;DHT22;15704;48.834;8.736;2022-12-04T14:14:36;2.10;99.90
28484;DHT22;15704;48.834;8.736;2022-12-04T14:17:05;2.00;99.90
28484;DHT22;15704;48.834;8.736;2022-12-04T14:19:43;1.70;99.90
28484;DHT22;15704;48.834;8.736;2022-12-04T14:27:44;1.90;99.90
28484;DHT22;15704;48.834;8.736;2022-12-04T14:30:31;1.90;99.90
28484;DHT22;15704;48.834;8.736;2022-12-04T14:33:16;1.80;99.90
28484;DHT22;15704;48.834;8.736;2022-12-04T14:35:49;2.00;99.90
28484;DHT22;15704;48.834;8.736;2022-12-04T14:38:20;1.90;99.90
28484;DHT22;15704;48.834;8.736;2022-12-04T14:40:50;2.00;99.90
28484;DHT22;15704;48.834;8.736;2022-12-04T14:43:44;2.10;99.90
28484;DHT22;15704;48.834;8.736;2022-12-04T14:51:54;2.10;99.90
28484;DHT22;15704;48.834;8.736;2022-12-04T14:54:28;2.00;99.90
28484;DHT22;15704;48.834;8.736;2022-12-04T14:59:49;1.90;99.90
28484;DHT22;15704;48.834;8.736;2022-12-04T15:02:24;1.90;99.90
28484;DHT22;15704;48.834;8.736;2022-12-04T15:04:52;1.80;99.90
28484;DHT22;15704;48.834;8.736;2022-12-04T15:07:24;1.70;99.90
28484;DHT22;15704;48.834;8.736;2022-12-04T15:09:53;1.80;99.90
28484;DHT22;15704;48.834;8.736;2022-12-04T15:12:52;1.80;99.90
28484;DHT22;15704;48.834;8.736;2022-12-04T15:15:25;1.70;99.90
28484;DHT22;15704;48.834;8.736;2022-12-04T15:17:59;1.70;99.90
28484;DHT22;15704;48.834;8.736;2022-12-04T15:20:28;1.90;99.90
28484;DHT22;15704;48.834;8.736;2022-12-04T15:23:04;2.00;99.90
28484;DHT22;15704;48.834;8.736;2022-12-04T15:25:45;2.10;99.90
28484;DHT22;15704;48.834;8.736;2022-12-04T15:28:20;2.20;99.90
28484;DHT22;15704;48.834;8.736;2022-12-04T15:30:48;2.20;99.90
28484;DHT22;15704;48.834;8.736;2022-12-04T15:33:21;2.30;99.90
28484;DHT22;15704;48.834;8.736;2022-12-04T15:36:38;2.30;99.90
28484;DHT22;15704;48.834;8.736;2022-12-04T15:38:44;2.40;99.90
28484;DHT22;15704;48.834;8.736;2022-12-04T15:41:32;2.40;99.90
28484;DHT22;15704;48.834;8.736;2022-12-04T15:44:00;2.40;99.90
28484;DHT22;15704;48.834;8.736;2022-12-04T15:46:33;2.30;99.90
28484;DHT22;15704;48.834;8.736;2022-12-04T15:49:18;2.30;99.90
28484;DHT22;15704;48.834;8.736;2022-12-04T15:51:46;2.30;99.90
28484;DHT22;15704;48.834;8.736;2022-12-04T15:54:23;2.30;99.90
28484;DHT22;15704;48.834;8.736;2022-12-04T15:56:58;2.30;99.90
28484;DHT22;15704;48.834;8.736;2022-12-04T15:59:27;2.20;99.90
28484;DHT22;15704;48.834;8.736;2022-12-04T16:01:55;2.10;99.90
28484;DHT22;15704;48.834;8.736;2022-12-04T16:04:29;2.10;99.90
28484;DHT22;15704;48.834;8.736;2022-12-04T16:07:01;2.00;99.90
28484;DHT22;15704;48.834;8.736;2022-12-04T16:09:28;2.00;99.90
28484;DHT22;15704;48.834;8.736;2022-12-04T16:12:01;2.10;99.90
28484;DHT22;15704;48.834;8.736;2022-12-04T16:14:28;2.00;99.90
28484;DHT22;15704;48.834;8.736;2022-12-04T16:17:00;2.20;99.90
28484;DHT22;15704;48.834;8.736;2022-12-04T16:19:40;2.30;99.90
28484;DHT22;15704;48.834;8.736;2022-12-04T16:22:13;2.20;99.90
28484;DHT22;15704;48.834;8.736;2022-12-04T16:24:46;2.20;99.90
28484;DHT22;15704;48.834;8.736;2022-12-04T16:27:15;2.20;99.90
28484;DHT22;15704;48.834;8.736;2022-12-04T16:29:43;2.10;99.90
28484;DHT22;15704;48.834;8.736;2022-12-04T16:32:12;2.10;99.90
28484;DHT22;15704;48.834;8.736;2022-12-04T16:34:39;2.00;99.90
28484;DHT22;15704;48.834;8.736;2022-12-04T16:37:14;2.10;99.90
28484;DHT22;15704;48.834;8.736;2022-12-04T16:39:41;2.00;99.90
28484;DHT22;15704;48.834;8.736;2022-12-04T16:42:17;2.10;99.90
28484;DHT22;15704;48.834;8.736;2022-12-04T16:44:44;2.10;99.90
28484;DHT22;15704;48.834;8.736;2022-12-04T16:47:12;2.00;99.90
28484;DHT22;15704;48.834;8.736;2022-12-04T16:49:40;2.10;99.90
28484;DHT22;15704;48.834;8.736;2022-12-04T16:52:08;1.90;99.90
28484;DHT22;15704;48.834;8.736;2022-12-04T16:54:35;2.00;99.90
28484;DHT22;15704;48.834;8.736;2022-12-04T16:57:02;1.90;99.90
28484;DHT22;15704;48.834;8.736;2022-12-04T16:59:29;2.00;99.90
28484;DHT22;15704;48.834;8.736;2022-12-04T17:01:55;1.90;99.90
28484;DHT22;15704;48.834;8.736;2022-12-04T17:04:22;1.70;99.90
28484;DHT22;15704;48.834;8.736;2022-12-04T17:06:50;1.80;99.90
28484;DHT22;15704;48.834;8.736;2022-12-04T17:09:16;1.90;99.90
28484;DHT22;15704;48.834;8.736;2022-12-04T17:11:44;1.80;99.90
28484;DHT22;15704;48.834;8.736;2022-12-04T17:14:11;1.80;99.90
28484;DHT22;15704;48.834;8.736;2022-12-04T17:16:41;1.90;99.90
28484;DHT22;15704;48.834;8.736;2022-12-04T17:19:10;1.90;99.90
28484;DHT22;15704;48.834;8.736;2022-12-04T17:21:37;2.00;99.90
28484;DHT22;15704;48.834;8.736;2022-12-04T17:24:05;2.00;99.90
28484;DHT22;15704;48.834;8.736;2022-12-04T17:26:32;2.00;99.90
28484;DHT22;15704;48.834;8.736;2022-12-04T17:28:59;2.00;99.90
28484;DHT22;15704;48.834;8.736;2022-12-04T17:31:26;2.00;99.90
28484;DHT22;15704;48.834;8.736;2022-12-04T17:33:55;2.00;99.90
28484;DHT22;15704;48.834;8.736;2022-12-04T17:36:24;2.10;99.90
28484;DHT22;15704;48.834;8.736;2022-12-04T17:38:56;2.00;99.90
28484;DHT22;15704;48.834;8.736;2022-12-04T17:41:24;2.00;99.90
28484;DHT22;15704;48.834;8.736;2022-12-04T17:43:50;2.00;99.90
28484;DHT22;15704;48.834;8.736;2022-12-04T17:46:19;1.90;99.90
28484;DHT22;15704;48.834;8.736;2022-12-04T17:48:47;1.90;99.90
28484;DHT22;15704;48.834;8.736;2022-12-04T17:51:19;2.00;99.90
28484;DHT22;15704;48.834;8.736;2022-12-04T17:53:46;2.10;99.90